createdAt,value
2022-12-22T00:01:09.253Z,0
2022-12-22T00:01:50.556Z,0
2022-12-22T00:02:30.506Z,0
2022-12-22T00:03:11.059Z,0
2022-12-22T00:03:51.778Z,0
2022-12-22T00:05:49.268Z,0
2022-12-22T00:06:29.918Z,0
2022-12-22T00:07:10.524Z,0
2022-12-22T00:07:52.154Z,0
2022-12-22T00:10:05.190Z,0
2022-12-22T00:10:45.733Z,0
2022-12-22T00:11:26.273Z,0
2022-12-22T00:12:06.830Z,0
2022-12-22T00:12:47.388Z,0
2022-12-22T00:13:27.940Z,0
2022-12-22T00:14:09.198Z,0
2022-12-22T00:16:23.954Z,0
2022-12-22T00:17:05.443Z,0
2022-12-22T00:17:47.842Z,0
2022-12-22T00:18:32.008Z,0
2022-12-22T00:19:12.549Z,0
2022-12-22T00:19:55.429Z,0
2022-12-22T00:22:27.101Z,0
2022-12-22T00:23:07.630Z,0
2022-12-22T00:23:48.183Z,0
2022-12-22T00:24:28.705Z,0
2022-12-22T00:25:09.216Z,0
2022-12-22T00:25:49.739Z,0
2022-12-22T00:26:30.271Z,0
2022-12-22T00:27:10.827Z,0
2022-12-22T00:27:51.359Z,0
2022-12-22T00:28:31.872Z,0
2022-12-22T00:35:17.248Z,0
2022-12-22T00:35:57.778Z,0
2022-12-22T00:36:38.316Z,0
2022-12-22T00:37:18.868Z,0
2022-12-22T00:37:59.385Z,0
2022-12-22T00:38:39.900Z,0
2022-12-22T00:39:20.429Z,0
2022-12-22T00:41:33.984Z,0
2022-12-22T00:42:14.513Z,0
2022-12-22T00:42:55.070Z,0
2022-12-22T00:43:35.566Z,0
2022-12-22T00:44:16.076Z,0
2022-12-22T00:44:56.621Z,0
2022-12-22T00:45:37.273Z,0
2022-12-22T00:46:17.753Z,0
2022-12-22T00:46:58.273Z,0
2022-12-22T00:47:38.798Z,0
2022-12-22T00:53:03.733Z,0
2022-12-22T00:53:44.300Z,0
2022-12-22T00:54:24.835Z,0
2022-12-22T00:55:05.399Z,0
2022-12-22T00:55:45.926Z,0
2022-12-22T00:56:26.442Z,0
2022-12-22T00:57:06.957Z,0
2022-12-22T00:57:47.502Z,0
2022-12-22T01:00:00.603Z,0
2022-12-22T01:00:41.734Z,0
2022-12-22T01:01:22.301Z,0
2022-12-22T01:02:02.997Z,0
2022-12-22T01:02:44.322Z,0
2022-12-22T01:03:24.735Z,0
2022-12-22T01:04:05.762Z,0
2022-12-22T01:10:10.513Z,0
2022-12-22T01:10:52.000Z,0
2022-12-22T01:11:32.549Z,0
2022-12-22T01:12:13.123Z,0
2022-12-22T01:12:53.664Z,0
2022-12-22T01:13:34.233Z,0
2022-12-22T01:14:14.768Z,0
2022-12-22T01:14:55.309Z,0
2022-12-22T01:20:20.425Z,0
2022-12-22T01:21:00.992Z,0
2022-12-22T01:21:41.526Z,0
2022-12-22T01:22:22.083Z,0
2022-12-22T01:23:02.615Z,0
2022-12-22T01:25:16.159Z,0
2022-12-22T01:25:56.688Z,0
2022-12-22T01:26:37.231Z,0
2022-12-22T01:27:17.757Z,0
2022-12-22T01:27:58.263Z,0
2022-12-22T01:28:38.803Z,0
2022-12-22T01:29:19.360Z,0
2022-12-22T01:29:59.913Z,0
2022-12-22T01:30:40.501Z,0
2022-12-22T01:31:21.069Z,0
2022-12-22T01:37:25.944Z,0
2022-12-22T01:38:06.519Z,0
2022-12-22T01:38:47.071Z,0
2022-12-22T01:39:27.602Z,0
2022-12-22T01:40:08.185Z,0
2022-12-22T01:40:48.730Z,0
2022-12-22T01:41:29.263Z,0
2022-12-22T01:42:09.820Z,0
2022-12-22T01:42:50.380Z,0
2022-12-22T01:43:30.941Z,0
2022-12-22T01:50:16.369Z,0
2022-12-22T01:50:56.905Z,0
2022-12-22T01:53:12.423Z,0
2022-12-22T01:53:50.460Z,0
2022-12-22T01:54:31.178Z,0
2022-12-22T01:55:11.495Z,0
2022-12-22T01:55:52.019Z,0
2022-12-22T01:56:32.552Z,0
2022-12-22T01:57:13.107Z,0
2022-12-22T01:57:53.646Z,0
2022-12-22T01:58:34.190Z,0
2022-12-22T01:59:14.764Z,0
2022-12-22T02:06:00.112Z,0
2022-12-22T02:06:40.601Z,0
2022-12-22T02:07:21.127Z,0
2022-12-22T02:08:01.657Z,0
2022-12-22T02:08:42.204Z,0
2022-12-22T02:09:22.751Z,0
2022-12-22T02:10:03.272Z,0
2022-12-22T02:10:43.826Z,0
2022-12-22T02:11:24.397Z,0
2022-12-22T02:12:04.906Z,0
2022-12-22T02:16:04.578Z,0
2022-12-22T02:16:44.992Z,0
2022-12-22T02:17:25.524Z,0
2022-12-22T02:18:06.071Z,0
2022-12-22T02:18:46.606Z,0
2022-12-22T02:19:27.131Z,0
2022-12-22T02:20:07.654Z,0
2022-12-22T02:20:48.175Z,0
2022-12-22T02:21:28.723Z,0
2022-12-22T02:22:09.260Z,0
2022-12-22T02:27:34.487Z,0
2022-12-22T02:28:15.117Z,0
2022-12-22T02:28:55.607Z,0
2022-12-22T02:31:09.786Z,0
2022-12-22T02:31:50.285Z,0
2022-12-22T02:32:31.294Z,0
2022-12-22T02:33:11.897Z,0
2022-12-22T02:35:25.956Z,0
2022-12-22T02:36:06.509Z,0
2022-12-22T02:36:48.014Z,0
2022-12-22T02:37:28.542Z,0
2022-12-22T02:40:02.736Z,0
2022-12-22T02:40:43.243Z,0
2022-12-22T02:41:23.774Z,0
2022-12-22T02:42:04.327Z,0
2022-12-22T02:42:44.871Z,0
2022-12-22T02:44:59.456Z,0
2022-12-22T02:45:40.002Z,0
2022-12-22T02:46:20.588Z,0
2022-12-22T02:47:01.327Z,0
2022-12-22T02:47:41.808Z,0
2022-12-22T02:48:22.444Z,0
2022-12-22T02:49:02.949Z,0
2022-12-22T02:49:43.468Z,0
2022-12-22T02:50:24.000Z,0
2022-12-22T02:56:29.481Z,0
2022-12-22T02:57:10.006Z,0
2022-12-22T02:57:50.522Z,0
2022-12-22T02:58:31.028Z,0
2022-12-22T02:59:11.585Z,0
2022-12-22T02:59:52.122Z,0
2022-12-22T03:00:32.672Z,0
2022-12-22T03:01:13.208Z,0
2022-12-22T03:01:53.863Z,0
2022-12-22T03:02:34.359Z,0
2022-12-22T03:08:51.333Z,0
2022-12-22T03:09:31.850Z,0
2022-12-22T03:10:12.416Z,0
2022-12-22T03:10:52.911Z,0
2022-12-22T03:11:33.972Z,0
2022-12-22T03:13:46.732Z,0
2022-12-22T03:14:27.289Z,0
2022-12-22T03:15:07.805Z,0
2022-12-22T03:15:48.361Z,0
2022-12-22T03:16:29.487Z,0
2022-12-22T03:17:10.526Z,0
2022-12-22T03:17:51.073Z,0
2022-12-22T03:18:31.621Z,0
2022-12-22T03:24:36.569Z,0
2022-12-22T03:25:17.118Z,0
2022-12-22T03:25:57.684Z,0
2022-12-22T03:26:38.221Z,0
2022-12-22T03:28:53.989Z,0
2022-12-22T03:29:34.703Z,0
2022-12-22T03:31:32.857Z,0
2022-12-22T03:32:13.452Z,0
2022-12-22T03:32:55.782Z,0
2022-12-22T03:33:36.317Z,0
2022-12-22T03:36:04.614Z,0
2022-12-22T03:36:45.147Z,0
2022-12-22T03:37:25.696Z,0
2022-12-22T03:38:06.801Z,0
2022-12-22T03:38:47.315Z,0
2022-12-22T03:41:01.948Z,0
2022-12-22T03:41:42.493Z,0
2022-12-22T03:42:23.023Z,0
2022-12-22T03:43:03.567Z,0
2022-12-22T03:43:44.128Z,0
2022-12-22T03:44:24.636Z,0
2022-12-22T03:45:05.155Z,0
2022-12-22T03:45:45.683Z,0
2022-12-22T03:46:26.289Z,0
2022-12-22T03:48:39.302Z,0
2022-12-22T03:49:19.846Z,0
2022-12-22T03:50:00.379Z,0
2022-12-22T03:50:40.895Z,0
2022-12-22T03:51:21.416Z,0
2022-12-22T03:52:01.954Z,0
2022-12-22T03:52:42.498Z,0
2022-12-22T03:53:23.038Z,0
2022-12-22T03:54:03.546Z,0
2022-12-22T03:54:44.104Z,0
2022-12-22T04:02:46.723Z,0
2022-12-22T04:03:27.315Z,0
2022-12-22T04:04:08.771Z,0
2022-12-22T04:04:49.291Z,0
2022-12-22T04:05:29.802Z,0
2022-12-22T04:06:10.852Z,0
2022-12-22T04:06:51.390Z,0
2022-12-22T04:11:36.541Z,0
2022-12-22T04:12:17.024Z,0
2022-12-22T04:12:57.553Z,0
2022-12-22T04:13:38.049Z,0
2022-12-22T04:14:18.570Z,0
2022-12-22T04:14:59.095Z,0
2022-12-22T04:15:39.600Z,0
2022-12-22T04:16:20.170Z,0
2022-12-22T04:17:00.739Z,0
2022-12-22T04:17:41.185Z,0
2022-12-22T04:18:21.701Z,0
2022-12-22T04:24:26.643Z,0
2022-12-22T04:25:07.159Z,0
2022-12-22T04:25:47.667Z,0
2022-12-22T04:26:28.193Z,0
2022-12-22T04:27:09.646Z,0
2022-12-22T04:27:50.155Z,0
2022-12-22T04:28:30.718Z,0
2022-12-22T04:29:11.176Z,0
2022-12-22T04:29:51.754Z,0
2022-12-22T04:35:56.518Z,0
2022-12-22T04:36:37.085Z,0
2022-12-22T04:38:51.634Z,0
2022-12-22T04:39:32.149Z,0
2022-12-22T04:40:12.681Z,0
2022-12-22T04:40:53.287Z,0
2022-12-22T04:41:33.816Z,0
2022-12-22T04:42:14.772Z,0
2022-12-22T04:44:27.405Z,0
2022-12-22T04:45:07.951Z,0
2022-12-22T04:45:48.501Z,0
2022-12-22T04:46:29.068Z,0
2022-12-22T04:47:09.518Z,0
2022-12-22T04:47:50.046Z,0
2022-12-22T04:48:30.600Z,0
2022-12-22T04:49:11.648Z,0
2022-12-22T04:49:52.208Z,0
2022-12-22T04:56:37.621Z,0
2022-12-22T04:58:52.973Z,0
2022-12-22T04:59:34.187Z,0
2022-12-22T05:00:15.301Z,0
2022-12-22T05:00:59.486Z,0
2022-12-22T05:03:13.014Z,0
2022-12-22T05:03:53.491Z,0
2022-12-22T05:04:34.123Z,0
2022-12-22T05:05:14.618Z,0
2022-12-22T05:05:55.156Z,0
2022-12-22T05:06:35.772Z,0
2022-12-22T05:07:16.254Z,0
2022-12-22T05:07:56.790Z,0
2022-12-22T05:08:37.319Z,0
2022-12-22T05:09:17.822Z,0
2022-12-22T05:15:22.691Z,0
2022-12-22T05:16:03.904Z,0
2022-12-22T05:16:44.430Z,0
2022-12-22T05:17:24.935Z,0
2022-12-22T05:18:05.439Z,0
2022-12-22T05:18:45.998Z,0
2022-12-22T05:20:59.014Z,0
2022-12-22T05:21:39.516Z,0
2022-12-22T05:22:20.049Z,0
2022-12-22T05:23:00.608Z,0
2022-12-22T05:23:41.144Z,0
2022-12-22T05:24:21.670Z,0
2022-12-22T05:25:02.200Z,0
2022-12-22T05:25:42.716Z,0
2022-12-22T05:26:23.246Z,0
2022-12-22T05:27:03.799Z,0
2022-12-22T05:33:49.121Z,0
2022-12-22T05:34:29.604Z,0
2022-12-22T05:35:10.117Z,0
2022-12-22T05:35:50.649Z,0
2022-12-22T05:38:04.377Z,0
2022-12-22T05:38:44.943Z,0
2022-12-22T05:39:25.490Z,0
2022-12-22T05:40:06.047Z,0
2022-12-22T05:40:47.115Z,0
2022-12-22T05:41:27.657Z,0
2022-12-22T05:42:08.202Z,0
2022-12-22T05:47:33.655Z,0
2022-12-22T05:49:46.775Z,0
2022-12-22T05:50:27.253Z,0
2022-12-22T05:51:07.912Z,0
2022-12-22T05:51:48.470Z,0
2022-12-22T05:52:29.007Z,0
2022-12-22T05:53:09.509Z,0
2022-12-22T05:53:50.058Z,0
2022-12-22T05:54:31.229Z,0
2022-12-22T05:55:11.763Z,0
2022-12-22T06:01:16.523Z,0
2022-12-22T06:01:57.072Z,0
2022-12-22T06:02:37.651Z,0
2022-12-22T06:03:18.168Z,0
2022-12-22T06:05:31.148Z,0
2022-12-22T06:06:11.690Z,0
2022-12-22T06:06:52.220Z,0
2022-12-22T06:07:32.737Z,0
2022-12-22T06:08:13.253Z,0
2022-12-22T06:08:53.811Z,0
2022-12-22T06:09:34.428Z,0
2022-12-22T06:10:14.959Z,0
2022-12-22T06:10:55.461Z,0
2022-12-22T06:11:36.792Z,0
2022-12-22T06:16:21.308Z,0
2022-12-22T06:17:01.707Z,0
2022-12-22T06:17:44.960Z,0
2022-12-22T06:18:23.149Z,0
2022-12-22T06:19:03.716Z,0
2022-12-22T06:19:44.240Z,0
2022-12-22T06:21:58.547Z,0
2022-12-22T06:22:39.102Z,0
2022-12-22T06:23:19.658Z,0
2022-12-22T06:24:00.267Z,0
2022-12-22T06:24:40.770Z,0
2022-12-22T06:25:21.992Z,0
2022-12-22T06:26:03.494Z,0
2022-12-22T06:32:08.360Z,0
2022-12-22T06:32:48.922Z,0
2022-12-22T06:33:29.462Z,0
2022-12-22T06:34:10.019Z,0
2022-12-22T06:36:23.578Z,0
2022-12-22T06:37:04.098Z,0
2022-12-22T06:37:44.648Z,0
2022-12-22T06:38:25.295Z,0
2022-12-22T06:39:05.823Z,0
2022-12-22T06:39:46.375Z,0
2022-12-22T06:40:27.045Z,0
2022-12-22T06:41:07.616Z,0
2022-12-22T06:41:48.168Z,0
2022-12-22T06:44:28.217Z,0
2022-12-22T06:45:08.758Z,0
2022-12-22T06:45:49.302Z,0
2022-12-22T06:46:29.843Z,0
2022-12-22T06:47:10.321Z,0
2022-12-22T06:47:50.854Z,0
2022-12-22T06:50:03.917Z,4
2022-12-22T06:50:44.464Z,4
2022-12-22T06:51:24.954Z,8
2022-12-22T06:52:05.471Z,4
2022-12-22T06:52:45.979Z,8
2022-12-22T06:53:26.568Z,8
2022-12-22T06:54:07.099Z,12
2022-12-22T06:54:47.614Z,12
2022-12-22T06:55:28.121Z,16
2022-12-22T06:57:43.200Z,20
2022-12-22T06:58:23.693Z,16
2022-12-22T06:59:04.928Z,20
2022-12-22T06:59:45.460Z,16
2022-12-22T07:01:46.123Z,16
2022-12-22T07:02:26.776Z,16
2022-12-22T07:03:08.158Z,20
2022-12-22T07:03:48.552Z,24
2022-12-22T07:06:02.006Z,24
2022-12-22T07:06:42.533Z,24
2022-12-22T07:07:23.870Z,32
2022-12-22T07:08:08.661Z,36
2022-12-22T07:10:05.975Z,60
2022-12-22T07:10:46.529Z,68
2022-12-22T07:11:27.699Z,72
2022-12-22T07:12:08.299Z,84
2022-12-22T07:14:22.988Z,128
2022-12-22T07:15:07.016Z,148
2022-12-22T07:15:59.456Z,164
2022-12-22T07:16:32.023Z,172
2022-12-22T07:19:05.531Z,196
2022-12-22T07:19:46.054Z,192
2022-12-22T07:20:26.629Z,176
2022-12-22T07:21:07.193Z,168
2022-12-22T07:23:20.205Z,204
2022-12-22T07:24:00.753Z,228
2022-12-22T07:24:41.303Z,244
2022-12-22T07:25:21.846Z,252
2022-12-22T07:26:02.390Z,260
2022-12-22T07:28:20.582Z,252
2022-12-22T07:28:57.798Z,268
2022-12-22T07:29:38.287Z,256
2022-12-22T07:30:19.559Z,252
2022-12-22T07:32:33.153Z,212
2022-12-22T07:33:13.716Z,204
2022-12-22T07:33:54.262Z,236
2022-12-22T07:34:34.794Z,280
2022-12-22T07:35:15.308Z,352
2022-12-22T07:35:55.833Z,408
2022-12-22T07:38:08.938Z,508
2022-12-22T07:38:51.061Z,580
2022-12-22T07:39:31.594Z,608
2022-12-22T07:40:12.148Z,636
2022-12-22T07:42:28.363Z,984
2022-12-22T07:43:08.919Z,972
2022-12-22T07:43:49.450Z,1112
2022-12-22T07:44:30.075Z,988
2022-12-22T07:46:30.275Z,852
2022-12-22T07:47:11.588Z,800
2022-12-22T07:47:53.743Z,756
2022-12-22T07:48:36.147Z,724
2022-12-22T07:50:50.595Z,752
2022-12-22T07:51:31.121Z,684
2022-12-22T07:52:12.285Z,624
2022-12-22T07:52:52.853Z,700
2022-12-22T07:55:13.211Z,1048
2022-12-22T07:55:57.233Z,1080
2022-12-22T07:56:39.222Z,1112
2022-12-22T07:57:24.377Z,1128
2022-12-22T07:59:55.882Z,1300
2022-12-22T08:00:36.408Z,1304
2022-12-22T08:01:18.598Z,1444
2022-12-22T08:02:00.605Z,1648
2022-12-22T08:04:14.688Z,1784
2022-12-22T08:04:55.164Z,1616
2022-12-22T08:05:38.439Z,1540
2022-12-22T08:06:20.497Z,1584
2022-12-22T08:08:33.916Z,948
2022-12-22T08:09:15.416Z,904
2022-12-22T08:09:55.950Z,976
2022-12-22T08:10:37.425Z,1208
2022-12-22T08:11:17.975Z,1444
2022-12-22T08:14:37.007Z,1612
2022-12-22T08:15:17.519Z,1684
2022-12-22T08:15:58.103Z,1524
2022-12-22T08:16:38.682Z,1600
2022-12-22T08:17:19.176Z,2028
2022-12-22T08:17:59.720Z,2024
2022-12-22T08:18:40.223Z,1588
2022-12-22T08:19:20.776Z,1488
2022-12-22T08:20:01.321Z,1728
2022-12-22T08:20:41.795Z,1448
2022-12-22T08:25:27.120Z,2604
2022-12-22T08:26:07.651Z,2272
2022-12-22T08:26:48.196Z,2328
2022-12-22T08:27:29.675Z,2460
2022-12-22T08:28:11.181Z,2464
2022-12-22T08:28:51.697Z,2444
2022-12-22T08:34:57.106Z,3576
2022-12-22T08:35:37.612Z,4272
2022-12-22T08:36:18.140Z,4424
2022-12-22T08:36:58.649Z,4540
2022-12-22T08:37:39.169Z,4792
2022-12-22T08:38:20.416Z,4984
2022-12-22T08:39:00.974Z,5164
2022-12-22T08:39:41.504Z,4864
2022-12-22T08:40:22.078Z,3996
2022-12-22T08:45:47.171Z,2044
2022-12-22T08:46:27.754Z,1848
2022-12-22T08:47:13.138Z,1816
2022-12-22T08:47:48.764Z,1852
2022-12-22T08:48:29.338Z,1960
2022-12-22T08:49:09.845Z,2200
2022-12-22T08:49:50.361Z,2432
2022-12-22T08:50:30.902Z,2584
2022-12-22T08:51:11.403Z,2572
2022-12-22T08:51:51.928Z,2836
2022-12-22T08:57:02.443Z,4648
2022-12-22T08:57:43.827Z,4752
2022-12-22T08:58:24.365Z,4232
2022-12-22T08:59:04.921Z,4080
2022-12-22T08:59:45.466Z,4188
2022-12-22T09:02:05.398Z,3332
2022-12-22T09:02:45.729Z,3388
2022-12-22T09:03:27.340Z,2608
2022-12-22T09:04:07.859Z,2712
2022-12-22T09:06:41.842Z,2564
2022-12-22T09:07:22.388Z,2652
2022-12-22T09:08:02.938Z,2500
2022-12-22T09:08:43.469Z,2200
2022-12-22T09:09:24.038Z,1872
2022-12-22T09:10:04.552Z,1740
2022-12-22T09:10:45.102Z,1724
2022-12-22T09:11:25.663Z,1640
2022-12-22T09:13:38.786Z,1504
2022-12-22T09:14:19.943Z,1644
2022-12-22T09:15:00.408Z,1576
2022-12-22T09:15:40.913Z,1564
2022-12-22T09:16:22.396Z,1792
2022-12-22T09:17:03.906Z,2080
2022-12-22T09:19:58.059Z,1484
2022-12-22T09:20:38.525Z,1480
2022-12-22T09:21:19.170Z,1444
2022-12-22T09:21:59.683Z,1640
2022-12-22T09:22:40.959Z,1716
2022-12-22T09:23:21.487Z,1652
2022-12-22T09:24:02.009Z,1756
2022-12-22T09:24:42.597Z,2072
2022-12-22T09:29:28.392Z,2868
2022-12-22T09:31:46.620Z,2768
2022-12-22T09:32:27.287Z,2516
2022-12-22T09:33:07.834Z,2192
2022-12-22T09:33:48.367Z,1968
2022-12-22T09:34:28.889Z,1780
2022-12-22T09:36:41.998Z,1840
2022-12-22T09:37:22.531Z,1868
2022-12-22T09:38:03.050Z,1708
2022-12-22T09:38:44.577Z,1716
2022-12-22T09:41:04.013Z,2308
2022-12-22T09:41:44.563Z,2388
2022-12-22T09:42:25.058Z,2452
2022-12-22T09:43:05.615Z,2444
2022-12-22T09:45:35.095Z,3080
2022-12-22T09:46:15.695Z,3052
2022-12-22T09:46:56.131Z,3012
2022-12-22T09:47:38.499Z,2444
2022-12-22T09:50:07.083Z,1924
2022-12-22T09:50:47.679Z,1916
2022-12-22T09:51:28.283Z,1916
2022-12-22T09:52:08.859Z,1492
2022-12-22T09:52:49.434Z,1556
2022-12-22T09:55:22.786Z,1528
2022-12-22T09:56:03.937Z,1540
2022-12-22T09:56:44.501Z,1644
2022-12-22T09:57:25.058Z,1840
2022-12-22T09:58:05.511Z,1796
2022-12-22T09:58:46.956Z,1880
2022-12-22T09:59:27.504Z,1912
2022-12-22T10:02:07.471Z,2288
2022-12-22T10:02:47.945Z,2388
2022-12-22T10:03:30.167Z,2712
2022-12-22T10:04:10.594Z,3464
2022-12-22T10:06:28.238Z,4484
2022-12-22T10:07:08.772Z,4404
2022-12-22T10:07:49.326Z,4236
2022-12-22T10:08:29.857Z,4276
2022-12-22T10:09:36.164Z,4140
2022-12-22T10:09:51.899Z,3988
2022-12-22T10:10:31.510Z,3944
2022-12-22T10:11:12.047Z,3780
2022-12-22T10:17:17.124Z,4372
2022-12-22T10:19:51.041Z,3636
2022-12-22T10:20:32.129Z,3492
2022-12-22T10:21:12.659Z,3032
2022-12-22T10:21:54.177Z,2612
2022-12-22T10:24:23.128Z,1920
2022-12-22T10:25:03.643Z,1972
2022-12-22T10:26:25.821Z,2112
2022-12-22T10:26:29.470Z,2240
2022-12-22T10:27:05.224Z,2200
2022-12-22T10:27:49.832Z,2328
2022-12-22T10:29:43.714Z,2552
2022-12-22T10:30:24.293Z,2680
2022-12-22T10:31:04.835Z,2832
2022-12-22T10:31:45.413Z,2744
2022-12-22T10:34:05.953Z,2816
2022-12-22T10:34:46.457Z,2612
2022-12-22T10:35:26.992Z,2076
2022-12-22T10:36:07.509Z,2012
2022-12-22T10:38:25.932Z,1896
2022-12-22T10:39:06.463Z,1736
2022-12-22T10:39:46.976Z,1772
2022-12-22T10:40:27.587Z,2224
2022-12-22T10:41:08.208Z,1884
2022-12-22T10:43:06.767Z,1680
2022-12-22T10:43:47.317Z,1680
2022-12-22T10:44:27.865Z,1508
2022-12-22T10:45:08.429Z,1480
2022-12-22T10:47:43.887Z,1124
2022-12-22T10:48:24.394Z,1512
2022-12-22T10:49:04.910Z,1812
2022-12-22T10:51:33.203Z,1508
2022-12-22T10:52:14.255Z,1604
2022-12-22T10:52:54.807Z,1348
2022-12-22T10:53:35.333Z,1320
2022-12-22T10:54:15.832Z,1528
2022-12-22T10:54:56.452Z,1548
2022-12-22T10:55:36.957Z,1748
2022-12-22T10:56:17.470Z,2184
2022-12-22T10:56:58.625Z,1936
2022-12-22T11:02:23.501Z,2344
2022-12-22T11:03:04.015Z,2684
2022-12-22T11:03:44.504Z,2616
2022-12-22T11:04:24.961Z,2392
2022-12-22T11:05:05.470Z,2408
2022-12-22T11:05:46.143Z,2064
2022-12-22T11:08:04.975Z,1988
2022-12-22T11:08:51.175Z,2380
2022-12-22T11:09:34.932Z,2412
2022-12-22T11:10:07.080Z,1728
2022-12-22T11:10:47.680Z,1580
2022-12-22T11:11:28.221Z,2644
2022-12-22T11:12:08.771Z,3380
2022-12-22T11:12:49.499Z,3424
2022-12-22T11:18:14.148Z,5120
2022-12-22T11:18:54.734Z,4808
2022-12-22T11:19:35.254Z,4348
2022-12-22T11:20:19.219Z,3780
2022-12-22T11:23:36.275Z,2272
2022-12-22T11:24:16.918Z,1784
2022-12-22T11:24:57.423Z,1736
2022-12-22T11:25:38.075Z,1872
2022-12-22T11:27:52.299Z,2384
2022-12-22T11:28:33.772Z,2256
2022-12-22T11:29:14.316Z,2496
2022-12-22T11:29:54.835Z,3200
2022-12-22T11:32:09.114Z,2204
2022-12-22T11:32:49.583Z,2076
2022-12-22T11:33:30.108Z,2204
2022-12-22T11:34:13.306Z,2572
2022-12-22T11:36:08.590Z,2100
2022-12-22T11:36:49.125Z,2028
2022-12-22T11:37:29.675Z,2420
2022-12-22T11:38:10.199Z,2920
2022-12-22T11:38:50.704Z,2852
2022-12-22T11:39:31.240Z,2672
2022-12-22T11:40:11.739Z,2668
2022-12-22T11:40:52.279Z,2504
2022-12-22T11:41:32.795Z,2780
2022-12-22T11:42:14.285Z,2748
2022-12-22T11:44:58.601Z,2344
2022-12-22T11:45:43.032Z,2220
2022-12-22T11:46:19.714Z,2288
2022-12-22T11:47:00.165Z,2212
2022-12-22T11:49:13.497Z,1908
2022-12-22T11:49:54.632Z,1672
2022-12-22T11:50:57.907Z,1340
2022-12-22T11:51:19.769Z,1356
2022-12-22T11:53:50.648Z,1856
2022-12-22T11:54:31.165Z,1856
2022-12-22T11:55:11.699Z,1616
2022-12-22T11:55:52.242Z,1476
2022-12-22T11:56:33.461Z,1300
2022-12-22T11:57:13.957Z,1176
2022-12-22T11:57:54.510Z,1188
2022-12-22T12:00:07.587Z,1108
2022-12-22T12:01:13.921Z,1304
2022-12-22T12:01:30.386Z,1508
2022-12-22T12:02:11.070Z,1404
2022-12-22T12:04:08.857Z,1344
2022-12-22T12:04:49.342Z,1496
2022-12-22T12:05:29.890Z,1344
2022-12-22T12:06:10.446Z,1080
2022-12-22T12:06:50.990Z,1052
2022-12-22T12:07:34.004Z,1208
2022-12-22T12:10:42.908Z,1352
2022-12-22T12:11:23.467Z,1060
2022-12-22T12:12:04.048Z,1068
2022-12-22T12:12:46.035Z,1144
2022-12-22T12:14:59.072Z,1196
2022-12-22T12:15:39.680Z,1180
2022-12-22T12:16:20.288Z,1016
2022-12-22T12:17:00.724Z,940
2022-12-22T12:19:29.871Z,1108
2022-12-22T12:20:11.111Z,1032
2022-12-22T12:20:51.553Z,1132
2022-12-22T12:21:32.121Z,1192
2022-12-22T12:22:12.656Z,1272
2022-12-22T12:22:53.226Z,1264
2022-12-22T12:25:06.469Z,1496
2022-12-22T12:25:47.030Z,1732
2022-12-22T12:26:27.557Z,1904
2022-12-22T12:27:08.134Z,1944
2022-12-22T12:29:22.092Z,1900
2022-12-22T12:30:43.285Z,1444
2022-12-22T12:31:26.421Z,1176
2022-12-22T12:32:04.455Z,1392
2022-12-22T12:34:17.442Z,1180
2022-12-22T12:34:57.979Z,1160
2022-12-22T12:35:38.483Z,1364
2022-12-22T12:36:19.022Z,1408
2022-12-22T12:36:59.559Z,1588
2022-12-22T12:37:40.102Z,1988
2022-12-22T12:38:56.654Z,1804
2022-12-22T12:39:09.255Z,1624
2022-12-22T12:39:41.669Z,1508
2022-12-22T12:40:22.208Z,1500
2022-12-22T12:47:07.713Z,1604
2022-12-22T12:47:48.153Z,1536
2022-12-22T12:48:28.682Z,1496
2022-12-22T12:49:09.267Z,1816
2022-12-22T12:49:49.810Z,2524
2022-12-22T12:50:30.396Z,2380
2022-12-22T12:52:43.489Z,2316
2022-12-22T12:53:23.999Z,2772
2022-12-22T12:54:04.564Z,2352
2022-12-22T12:54:45.643Z,1996
2022-12-22T12:57:13.658Z,1840
2022-12-22T12:57:54.209Z,2100
2022-12-22T12:58:34.731Z,2592
2022-12-22T12:59:16.003Z,2704
2022-12-22T13:01:30.203Z,2080
2022-12-22T13:02:12.067Z,1904
2022-12-22T13:02:52.554Z,1956
2022-12-22T13:04:17.602Z,1932
2022-12-22T13:06:49.577Z,1464
2022-12-22T13:07:27.761Z,1504
2022-12-22T13:08:08.305Z,1628
2022-12-22T13:08:48.839Z,1692
2022-12-22T13:10:09.912Z,1056
2022-12-22T13:10:50.442Z,940
2022-12-22T13:12:10.318Z,1024
2022-12-22T13:12:12.813Z,1080
2022-12-22T13:12:52.114Z,1060
2022-12-22T13:19:39.328Z,908
2022-12-22T13:20:20.545Z,1100
2022-12-22T13:21:34.097Z,1248
2022-12-22T13:21:52.672Z,1264
2022-12-22T13:24:28.862Z,920
2022-12-22T13:24:52.250Z,976
2022-12-22T13:25:32.805Z,876
2022-12-22T13:26:13.399Z,808
2022-12-22T13:28:31.582Z,948
2022-12-22T13:29:12.149Z,1144
2022-12-22T13:29:53.169Z,1268
2022-12-22T13:30:33.702Z,1636
2022-12-22T13:31:14.289Z,1548
2022-12-22T13:31:55.509Z,1788
2022-12-22T13:32:35.960Z,1820
2022-12-22T13:33:16.480Z,1772
2022-12-22T13:39:21.343Z,1412
2022-12-22T13:40:01.872Z,1320
2022-12-22T13:40:42.411Z,1112
2022-12-22T13:41:27.036Z,1176
2022-12-22T13:42:04.314Z,1276
2022-12-22T13:42:44.843Z,1184
2022-12-22T13:43:25.286Z,1228
2022-12-22T13:44:05.805Z,1096
2022-12-22T13:44:46.347Z,932
2022-12-22T13:50:51.260Z,1216
2022-12-22T13:51:31.923Z,1224
2022-12-22T13:54:26.464Z,1368
2022-12-22T13:55:07.044Z,1448
2022-12-22T13:55:47.555Z,1244
2022-12-22T13:56:28.096Z,1200
2022-12-22T13:57:08.642Z,1144
2022-12-22T13:57:52.121Z,1024
2022-12-22T13:58:29.743Z,1136
2022-12-22T14:05:52.385Z,788
2022-12-22T14:06:32.939Z,760
2022-12-22T14:07:13.578Z,736
2022-12-22T14:07:54.067Z,716
2022-12-22T14:08:34.635Z,724
2022-12-22T14:09:15.179Z,844
2022-12-22T14:09:55.750Z,832
2022-12-22T14:10:36.303Z,864
2022-12-22T14:11:16.833Z,936
2022-12-22T14:11:57.604Z,988
2022-12-22T14:17:22.020Z,1196
2022-12-22T14:18:02.547Z,1140
2022-12-22T14:18:43.883Z,1152
2022-12-22T14:19:24.373Z,1200
2022-12-22T14:20:05.017Z,1176
2022-12-22T14:22:18.489Z,1576
2022-12-22T14:22:59.056Z,1732
2022-12-22T14:23:41.228Z,1940
2022-12-22T14:24:23.682Z,2112
2022-12-22T14:26:42.250Z,1876
2022-12-22T14:27:22.868Z,1760
2022-12-22T14:28:03.416Z,1484
2022-12-22T14:28:43.937Z,1264
2022-12-22T14:29:24.488Z,1032
2022-12-22T14:30:05.145Z,936
2022-12-22T14:30:45.623Z,956
2022-12-22T14:31:26.146Z,932
2022-12-22T14:32:06.715Z,912
2022-12-22T14:32:52.541Z,920
2022-12-22T14:35:25.795Z,652
2022-12-22T14:36:06.277Z,612
2022-12-22T14:36:46.812Z,584
2022-12-22T14:37:32.534Z,572
2022-12-22T14:38:07.905Z,596
2022-12-22T14:38:48.431Z,588
2022-12-22T14:39:28.970Z,660
2022-12-22T14:40:09.517Z,728
2022-12-22T14:40:56.359Z,816
2022-12-22T14:41:30.553Z,828
2022-12-22T14:47:35.405Z,944
2022-12-22T14:48:15.975Z,836
2022-12-22T14:48:56.538Z,752
2022-12-22T14:52:12.912Z,564
2022-12-22T14:52:53.431Z,596
2022-12-22T14:53:33.945Z,616
2022-12-22T14:54:15.095Z,604
2022-12-22T14:54:55.650Z,620
2022-12-22T14:55:36.866Z,640
2022-12-22T14:56:17.376Z,624
2022-12-22T14:56:57.913Z,620
2022-12-22T15:03:03.742Z,348
2022-12-22T15:03:44.348Z,328
2022-12-22T15:04:24.687Z,300
2022-12-22T15:05:05.295Z,276
2022-12-22T15:05:45.826Z,264
2022-12-22T15:06:26.350Z,268
2022-12-22T15:07:06.881Z,268
2022-12-22T15:09:33.573Z,220
2022-12-22T15:10:14.911Z,212
2022-12-22T15:10:41.687Z,200
2022-12-22T15:11:22.236Z,184
2022-12-22T15:13:36.800Z,128
2022-12-22T15:14:17.350Z,120
2022-12-22T15:14:57.854Z,116
2022-12-22T15:15:38.388Z,112
2022-12-22T15:16:19.007Z,112
2022-12-22T15:16:59.673Z,128
2022-12-22T15:19:12.612Z,108
2022-12-22T15:19:53.164Z,104
2022-12-22T15:20:38.880Z,96
2022-12-22T15:21:14.260Z,80
2022-12-22T15:21:54.838Z,72
2022-12-22T15:22:35.352Z,80
2022-12-22T15:23:15.877Z,80
2022-12-22T15:23:56.382Z,88
2022-12-22T15:24:36.917Z,88
2022-12-22T15:25:17.426Z,76
2022-12-22T15:27:55.935Z,52
2022-12-22T15:28:36.541Z,52
2022-12-22T15:29:17.093Z,48
2022-12-22T15:29:57.638Z,44
2022-12-22T15:30:38.285Z,40
2022-12-22T15:31:18.817Z,36
2022-12-22T15:31:59.293Z,36
2022-12-22T15:32:39.874Z,40
2022-12-22T15:33:20.376Z,44
2022-12-22T15:34:00.905Z,48
2022-12-22T15:39:25.739Z,24
2022-12-22T15:40:06.258Z,24
2022-12-22T15:40:47.641Z,24
2022-12-22T15:41:28.151Z,24
2022-12-22T15:42:08.684Z,24
2022-12-22T15:42:49.229Z,24
2022-12-22T15:43:56.295Z,20
2022-12-22T15:45:42.925Z,12
2022-12-22T15:46:23.471Z,12
2022-12-22T15:47:03.917Z,12
2022-12-22T15:47:44.483Z,8
2022-12-22T15:48:25.007Z,12
2022-12-22T15:49:05.560Z,12
2022-12-22T15:49:46.106Z,8
2022-12-22T15:51:59.205Z,8